Glennville, California
Current Conditions -  °F | °C
As of 2:54 PM on Tuesday 25 Nov 2014 (Local Time) from KBFL Reporting Station
Haze Haze  
Wind Chill: 67°   Ceiling: Unl
Heat Index: 67°   Visibility: 6mi
Dew Point: 42°   Wind: 6mph
Humidity: 40%   Direction: NA
Pressure: 30.37"   Gusts: NA
Location:  35.73°N, 118.7°W
Report Text: KBFL 252254Z VRB05KT 6SM HZ CLR 19/06 A3037 RMK AO2 SLP282 T01940056 $
Loading
Personal Weather Stations






























Interactive Weather Map New forecast layout! Learn more

10-Day Weather Forecast

Advertisements
Track Severe Weather on mobile